createdAt,value
2018-11-10T00:01:52.818Z,6.80
2018-11-10T00:04:21.081Z,6.70
2018-11-10T00:06:49.245Z,6.80
2018-11-10T00:09:17.431Z,6.70
2018-11-10T00:11:45.834Z,6.70
2018-11-10T00:14:14.021Z,6.80
2018-11-10T00:16:42.236Z,6.80
2018-11-10T00:19:10.414Z,6.80
2018-11-10T00:21:38.594Z,6.80
2018-11-10T00:24:06.882Z,6.70
2018-11-10T00:26:35.072Z,6.70
2018-11-10T00:29:03.278Z,6.80
2018-11-10T00:31:31.470Z,6.80
2018-11-10T00:33:59.665Z,6.80
2018-11-10T00:36:27.854Z,6.90
2018-11-10T00:38:56.042Z,7.00
2018-11-10T00:41:24.214Z,6.90
2018-11-10T00:43:52.427Z,6.90
2018-11-10T00:46:20.609Z,6.90
2018-11-10T00:48:48.833Z,6.90
2018-11-10T00:51:17.013Z,6.90
2018-11-10T00:53:45.210Z,6.90
2018-11-10T00:56:13.397Z,7.00
2018-11-10T00:58:41.650Z,7.00
2018-11-10T01:01:09.835Z,6.90
2018-11-10T01:03:38.026Z,6.90
2018-11-10T01:06:06.222Z,6.90
2018-11-10T01:08:34.413Z,6.90
2018-11-10T01:11:02.606Z,6.90
2018-11-10T01:13:30.802Z,6.90
2018-11-10T01:15:58.997Z,6.90
2018-11-10T01:18:27.186Z,6.90
2018-11-10T01:20:55.378Z,6.90
2018-11-10T01:23:23.569Z,7.00
2018-11-10T01:25:51.745Z,7.10
2018-11-10T01:28:19.929Z,7.20
2018-11-10T01:30:48.097Z,7.30
2018-11-10T01:33:16.306Z,7.30
2018-11-10T01:35:44.485Z,7.40
2018-11-10T01:38:12.686Z,7.50
2018-11-10T01:40:40.869Z,7.60
2018-11-10T01:43:09.058Z,7.70
2018-11-10T01:45:37.245Z,7.80
2018-11-10T01:48:05.641Z,7.70
2018-11-10T01:50:33.818Z,7.60
2018-11-10T01:53:02.020Z,7.50
2018-11-10T01:55:30.209Z,7.50
2018-11-10T01:57:58.386Z,7.50
2018-11-10T02:00:26.571Z,7.40
2018-11-10T02:02:54.758Z,7.30
2018-11-10T02:05:22.934Z,7.30
2018-11-10T02:07:51.138Z,7.20
2018-11-10T02:10:19.320Z,7.20
2018-11-10T02:12:47.514Z,7.20
2018-11-10T02:15:16.701Z,7.20
2018-11-10T02:17:44.936Z,7.40
2018-11-10T02:20:14.073Z,7.40
2018-11-10T02:22:42.374Z,7.30
2018-11-10T02:25:11.545Z,7.30
2018-11-10T02:27:40.128Z,7.40
2018-11-10T02:30:09.690Z,7.60
2018-11-10T02:32:37.890Z,7.60
2018-11-10T02:35:06.882Z,7.70
2018-11-10T02:37:35.126Z,7.60
2018-11-10T02:40:03.309Z,7.60
2018-11-10T02:42:31.504Z,7.50
2018-11-10T02:44:59.681Z,7.40
2018-11-10T02:47:27.856Z,7.40
2018-11-10T02:49:56.066Z,7.40
2018-11-10T02:52:24.241Z,7.50
2018-11-10T02:54:52.452Z,7.60
2018-11-10T02:57:20.628Z,7.60
2018-11-10T02:59:48.805Z,7.70
2018-11-10T03:02:16.990Z,7.80
2018-11-10T03:04:45.257Z,7.70
2018-11-10T03:07:13.435Z,7.70
2018-11-10T03:09:41.626Z,7.80
2018-11-10T03:12:09.802Z,7.90
2018-11-10T03:14:38.005Z,7.90
2018-11-10T03:17:06.201Z,7.80
2018-11-10T03:19:34.388Z,7.80
2018-11-10T03:22:02.570Z,7.90
2018-11-10T03:24:30.766Z,7.90
2018-11-10T03:26:58.954Z,7.90
2018-11-10T03:29:27.150Z,7.90
2018-11-10T03:31:55.342Z,7.90
2018-11-10T03:34:23.550Z,7.90
2018-11-10T03:36:51.727Z,8.00
2018-11-10T03:39:19.925Z,7.90
2018-11-10T03:41:48.115Z,7.90
2018-11-10T03:44:16.301Z,7.90
2018-11-10T03:46:44.482Z,7.90
2018-11-10T03:49:12.674Z,7.90
2018-11-10T03:51:40.864Z,7.90
2018-11-10T03:54:09.051Z,7.90
2018-11-10T03:56:37.241Z,7.90
2018-11-10T03:59:05.425Z,7.90
2018-11-10T04:01:33.605Z,7.90
2018-11-10T04:04:01.797Z,7.90
2018-11-10T04:06:29.981Z,8.00
2018-11-10T04:08:58.177Z,8.10
2018-11-10T04:11:26.705Z,8.10
2018-11-10T04:13:54.901Z,8.10
2018-11-10T04:16:23.094Z,8.00
2018-11-10T04:18:51.285Z,8.00
2018-11-10T04:21:19.534Z,8.00
2018-11-10T04:23:47.717Z,8.10
2018-11-10T04:26:15.903Z,8.20
2018-11-10T04:28:44.138Z,8.20
2018-11-10T04:31:12.307Z,8.10
2018-11-10T04:33:40.513Z,8.10
2018-11-10T04:36:08.706Z,8.10
2018-11-10T04:38:36.886Z,8.20
2018-11-10T04:41:05.518Z,8.20
2018-11-10T04:43:33.718Z,8.20
2018-11-10T04:46:01.907Z,8.10
2018-11-10T04:48:30.090Z,8.10
2018-11-10T04:50:58.281Z,8.00
2018-11-10T04:53:26.469Z,8.00
2018-11-10T04:55:54.657Z,8.00
2018-11-10T04:58:22.846Z,8.00
2018-11-10T05:00:51.027Z,8.00
2018-11-10T05:03:19.216Z,8.00
2018-11-10T05:05:47.401Z,8.10
2018-11-10T05:08:15.589Z,8.20
2018-11-10T05:10:43.793Z,8.10
2018-11-10T05:13:11.999Z,8.10
2018-11-10T05:15:40.190Z,8.10
2018-11-10T05:18:08.373Z,8.10
2018-11-10T05:20:36.581Z,8.30
2018-11-10T05:23:04.857Z,8.40
2018-11-10T05:25:33.057Z,8.30
2018-11-10T05:28:01.256Z,8.50
2018-11-10T05:30:29.446Z,8.50
2018-11-10T05:32:57.668Z,8.40
2018-11-10T05:35:25.874Z,8.40
2018-11-10T05:37:54.087Z,8.40
2018-11-10T05:40:22.300Z,8.30
2018-11-10T05:42:50.498Z,8.20
2018-11-10T05:45:18.702Z,8.30
2018-11-10T05:47:46.913Z,8.30
2018-11-10T05:50:15.105Z,8.30
2018-11-10T05:52:43.293Z,8.20
2018-11-10T05:55:11.497Z,8.20
2018-11-10T05:57:40.113Z,8.20
2018-11-10T06:00:10.249Z,8.30
2018-11-10T06:02:38.453Z,8.30
2018-11-10T06:05:06.703Z,8.20
2018-11-10T06:07:34.901Z,8.20
2018-11-10T06:10:03.289Z,8.20
2018-11-10T06:12:31.307Z,8.20
2018-11-10T06:14:59.509Z,8.20
2018-11-10T06:17:27.707Z,8.20
2018-11-10T06:19:55.927Z,8.20
2018-11-10T06:22:24.124Z,8.30
2018-11-10T06:24:52.334Z,8.30
2018-11-10T06:27:20.528Z,8.30
2018-11-10T06:29:48.733Z,8.50
2018-11-10T06:32:16.943Z,8.50
2018-11-10T06:34:45.156Z,8.60
2018-11-10T06:37:13.353Z,8.60
2018-11-10T06:39:41.563Z,8.70
2018-11-10T06:42:09.761Z,8.60
2018-11-10T06:44:37.977Z,8.60
2018-11-10T06:47:06.246Z,8.60
2018-11-10T06:49:34.402Z,8.60
2018-11-10T06:52:02.606Z,8.60
2018-11-10T06:54:30.804Z,8.60
2018-11-10T06:56:59.001Z,8.60
2018-11-10T06:59:27.218Z,8.70
2018-11-10T07:01:55.427Z,8.70
2018-11-10T07:04:23.641Z,8.60
2018-11-10T07:06:51.863Z,8.60
2018-11-10T07:09:20.160Z,8.60
2018-11-10T07:11:48.321Z,8.70
2018-11-10T07:14:16.519Z,8.70
2018-11-10T07:16:44.713Z,8.80
2018-11-10T07:19:13.008Z,8.80
2018-11-10T07:21:41.210Z,8.90
2018-11-10T07:24:09.434Z,8.90
2018-11-10T07:26:37.637Z,9.00
2018-11-10T07:29:05.837Z,9.10
2018-11-10T07:31:34.058Z,9.20
2018-11-10T07:34:02.451Z,9.30
2018-11-10T07:36:30.640Z,9.40
2018-11-10T07:38:58.864Z,9.60
2018-11-10T07:41:27.044Z,9.60
2018-11-10T07:43:55.267Z,9.80
2018-11-10T07:46:23.457Z,9.90
2018-11-10T07:48:51.650Z,10.00
2018-11-10T07:51:19.968Z,10.20
2018-11-10T07:53:48.056Z,10.30
2018-11-10T07:56:16.285Z,10.30
2018-11-10T07:58:44.542Z,10.40
2018-11-10T08:01:12.758Z,10.50
2018-11-10T08:03:40.966Z,10.70
2018-11-10T08:06:09.228Z,10.70
2018-11-10T08:08:37.445Z,10.70
2018-11-10T08:11:05.670Z,10.80
2018-11-10T08:13:33.887Z,10.80
2018-11-10T08:16:02.095Z,10.90
2018-11-10T08:18:30.309Z,10.90
2018-11-10T08:20:58.530Z,10.90
2018-11-10T08:23:26.738Z,10.90
2018-11-10T08:25:54.938Z,10.90
2018-11-10T08:28:23.189Z,10.90
2018-11-10T08:30:51.417Z,10.90
2018-11-10T08:33:19.614Z,10.90
2018-11-10T08:35:47.830Z,11.00
2018-11-10T08:38:16.021Z,10.90
2018-11-10T08:40:44.245Z,10.90
2018-11-10T08:43:12.518Z,10.80
2018-11-10T08:45:40.749Z,10.80
2018-11-10T08:48:08.966Z,10.80
2018-11-10T08:50:37.177Z,10.80
2018-11-10T08:53:05.393Z,10.80
2018-11-10T08:55:33.601Z,10.80
2018-11-10T08:58:01.802Z,10.80
2018-11-10T09:00:30.018Z,10.90
2018-11-10T09:02:58.212Z,10.90
2018-11-10T09:05:26.421Z,10.90
2018-11-10T09:07:54.609Z,10.90
2018-11-10T09:10:22.834Z,11.00
2018-11-10T09:12:51.038Z,11.00
2018-11-10T09:15:19.355Z,11.00
2018-11-10T09:17:47.473Z,10.90
2018-11-10T09:20:17.686Z,10.90
2018-11-10T09:22:45.979Z,10.90
2018-11-10T09:25:16.557Z,11.00
2018-11-10T09:27:44.752Z,11.00
2018-11-10T09:30:14.280Z,11.10
2018-11-10T09:32:42.870Z,11.20
2018-11-10T09:35:12.168Z,11.30
2018-11-10T09:37:40.400Z,11.30
2018-11-10T09:40:10.449Z,11.40
2018-11-10T09:42:38.778Z,11.60
2018-11-10T09:45:08.624Z,11.70
2018-11-10T09:47:37.228Z,11.80
2018-11-10T09:50:08.671Z,11.80
2018-11-10T09:52:36.877Z,11.80
2018-11-10T09:55:05.837Z,11.90
2018-11-10T09:57:34.158Z,11.90
2018-11-10T10:00:02.381Z,11.90
2018-11-10T10:02:30.992Z,12.00
2018-11-10T10:04:58.831Z,12.30
2018-11-10T10:07:27.122Z,12.60
2018-11-10T10:09:55.340Z,12.90
2018-11-10T10:12:23.882Z,13.10
2018-11-10T10:14:52.109Z,13.60
2018-11-10T10:17:20.312Z,13.90
2018-11-10T10:19:48.801Z,14.20
2018-11-10T10:22:17.072Z,14.40
2018-11-10T10:24:45.273Z,14.40
2018-11-10T10:27:13.489Z,14.40
2018-11-10T10:29:41.766Z,14.20
2018-11-10T10:32:09.965Z,14.10
2018-11-10T10:34:38.305Z,14.00
2018-11-10T10:37:06.417Z,13.90
2018-11-10T10:39:34.797Z,13.90
2018-11-10T10:42:03.042Z,13.80
2018-11-10T10:44:31.266Z,13.80
2018-11-10T10:46:59.485Z,13.80
2018-11-10T10:49:27.698Z,14.00
2018-11-10T10:51:55.924Z,14.40
2018-11-10T10:54:26.472Z,15.00
2018-11-10T10:56:55.098Z,15.50
2018-11-10T10:59:23.367Z,15.90
2018-11-10T11:01:57.040Z,16.20
2018-11-10T11:04:30.665Z,16.30
2018-11-10T11:06:58.891Z,16.10
2018-11-10T11:09:27.119Z,16.00
2018-11-10T11:11:55.307Z,15.90
2018-11-10T11:14:23.505Z,16.00
2018-11-10T11:16:51.720Z,16.30
2018-11-10T11:19:19.925Z,16.60
2018-11-10T11:21:48.186Z,16.80
2018-11-10T11:24:16.353Z,17.10
2018-11-10T11:26:45.439Z,17.40
2018-11-10T11:29:13.739Z,17.40
2018-11-10T11:31:41.869Z,17.40
2018-11-10T11:34:10.081Z,17.30
2018-11-10T11:36:38.312Z,17.20
2018-11-10T11:39:09.091Z,17.00
2018-11-10T11:41:37.355Z,16.80
2018-11-10T11:44:05.884Z,16.60
2018-11-10T11:46:34.171Z,16.50
2018-11-10T11:49:02.486Z,16.50
2018-11-10T11:51:30.709Z,16.50
2018-11-10T11:53:58.984Z,16.50
2018-11-10T11:56:28.586Z,16.40
2018-11-10T11:59:02.729Z,16.30
2018-11-10T12:01:32.034Z,16.20
2018-11-10T12:04:01.288Z,16.10
2018-11-10T12:06:29.577Z,16.10
2018-11-10T12:08:57.803Z,16.00
2018-11-10T12:11:26.066Z,15.90
2018-11-10T12:13:55.493Z,15.80
2018-11-10T12:16:27.199Z,15.90
2018-11-10T12:18:52.066Z,15.90
2018-11-10T12:21:20.590Z,15.80
2018-11-10T12:23:48.809Z,15.70
2018-11-10T12:26:16.997Z,15.70
2018-11-10T12:28:45.185Z,15.60
2018-11-10T12:31:13.402Z,15.60
2018-11-10T12:33:41.611Z,15.70
2018-11-10T12:36:09.813Z,15.60
2018-11-10T12:38:38.045Z,15.60
2018-11-10T12:41:06.202Z,15.60
2018-11-10T12:43:34.402Z,15.60
2018-11-10T12:46:02.593Z,15.60
2018-11-10T12:48:30.778Z,15.60
2018-11-10T12:50:58.982Z,15.60
2018-11-10T12:53:27.157Z,15.80
2018-11-10T12:55:55.481Z,15.80
2018-11-10T12:58:23.836Z,15.80
2018-11-10T13:00:52.027Z,15.70
2018-11-10T13:03:20.214Z,15.70
2018-11-10T13:05:48.397Z,15.80
2018-11-10T13:08:16.732Z,15.80
2018-11-10T13:10:44.774Z,15.90
2018-11-10T13:13:13.343Z,16.00
2018-11-10T13:15:41.521Z,16.00
2018-11-10T13:18:09.715Z,16.00
2018-11-10T13:20:37.906Z,15.90
2018-11-10T13:23:06.090Z,15.90
2018-11-10T13:25:34.265Z,15.90
2018-11-10T13:28:02.462Z,15.80
2018-11-10T13:30:30.647Z,15.90
2018-11-10T13:32:58.841Z,15.90
2018-11-10T13:35:27.022Z,16.00
2018-11-10T13:37:55.295Z,16.00
2018-11-10T13:40:23.413Z,16.00
2018-11-10T13:42:51.697Z,16.00
2018-11-10T13:45:19.882Z,15.90
2018-11-10T13:47:48.094Z,16.00
2018-11-10T13:50:16.293Z,15.90
2018-11-10T13:52:44.868Z,15.90
2018-11-10T13:55:13.348Z,15.90
2018-11-10T13:57:41.545Z,15.90
2018-11-10T14:00:12.305Z,15.70
2018-11-10T14:02:40.577Z,15.70
2018-11-10T14:05:08.791Z,15.70
2018-11-10T14:07:36.995Z,15.70
2018-11-10T14:10:06.596Z,15.70
2018-11-10T14:12:34.848Z,15.80
2018-11-10T14:15:02.985Z,15.70
2018-11-10T14:17:31.178Z,15.60
2018-11-10T14:19:59.382Z,15.60
2018-11-10T14:22:27.637Z,15.60
2018-11-10T14:24:55.838Z,15.60
2018-11-10T14:27:24.082Z,15.50
2018-11-10T14:29:52.261Z,15.50
2018-11-10T14:32:20.461Z,15.50
2018-11-10T14:34:48.646Z,15.50
2018-11-10T14:37:17.039Z,15.40
2018-11-10T14:39:45.256Z,15.50
2018-11-10T14:42:13.483Z,15.60
2018-11-10T14:44:41.655Z,15.60
2018-11-10T14:47:09.901Z,15.60
2018-11-10T14:49:38.093Z,15.60
2018-11-10T14:52:06.292Z,15.50
2018-11-10T14:54:34.473Z,15.40
2018-11-10T14:57:02.719Z,15.50
2018-11-10T14:59:30.953Z,15.60
2018-11-10T15:01:59.189Z,15.60
2018-11-10T15:04:27.373Z,15.50
2018-11-10T15:06:55.574Z,15.40
2018-11-10T15:09:23.765Z,15.30
2018-11-10T15:11:52.144Z,15.10
2018-11-10T15:14:20.479Z,15.00
2018-11-10T15:16:48.758Z,14.90
2018-11-10T15:19:17.063Z,14.90
2018-11-10T15:21:45.381Z,14.80
2018-11-10T15:24:13.681Z,14.70
2018-11-10T15:26:41.889Z,14.60
2018-11-10T15:29:10.078Z,14.60
2018-11-10T15:31:38.270Z,14.50
2018-11-10T15:34:06.750Z,14.40
2018-11-10T15:36:34.929Z,14.40
2018-11-10T15:39:03.218Z,14.40
2018-11-10T15:41:31.406Z,14.30
2018-11-10T15:43:59.609Z,14.20
2018-11-10T15:46:27.798Z,14.20
2018-11-10T15:48:56.010Z,14.10
2018-11-10T15:51:24.297Z,14.10
2018-11-10T15:53:52.497Z,14.10
2018-11-10T15:56:20.696Z,14.10
2018-11-10T15:58:48.889Z,14.10
2018-11-10T16:01:17.086Z,14.10
2018-11-10T16:03:45.310Z,14.20
2018-11-10T16:06:13.492Z,14.30
2018-11-10T16:08:41.682Z,14.30
2018-11-10T16:11:09.881Z,14.20
2018-11-10T16:13:38.086Z,14.10
2018-11-10T16:16:06.749Z,14.00
2018-11-10T16:18:34.950Z,13.90
2018-11-10T16:21:03.286Z,13.90
2018-11-10T16:23:31.413Z,13.80
2018-11-10T16:25:59.625Z,13.80
2018-11-10T16:28:27.872Z,14.00
2018-11-10T16:30:56.785Z,14.00
2018-11-10T16:33:25.005Z,13.90
2018-11-10T16:35:53.217Z,13.80
2018-11-10T16:38:21.566Z,13.70
2018-11-10T16:40:49.832Z,13.60
2018-11-10T16:43:18.034Z,13.50
2018-11-10T16:45:46.226Z,13.40
2018-11-10T16:48:14.417Z,13.40
2018-11-10T16:50:42.630Z,13.40
2018-11-10T16:53:10.858Z,13.30
2018-11-10T16:55:38.992Z,13.30
2018-11-10T16:58:07.190Z,13.20
2018-11-10T17:00:35.385Z,13.20
2018-11-10T17:03:03.582Z,13.10
2018-11-10T17:05:31.801Z,13.10
2018-11-10T17:07:59.995Z,13.00
2018-11-10T17:10:28.173Z,13.00
2018-11-10T17:12:56.416Z,13.00
2018-11-10T17:15:24.632Z,13.00
2018-11-10T17:17:52.785Z,13.00
2018-11-10T17:20:20.986Z,13.00
2018-11-10T17:22:49.169Z,12.90
2018-11-10T17:27:25.685Z,12.90
2018-11-10T17:29:53.879Z,12.90
2018-11-10T17:32:22.318Z,12.90
2018-11-10T17:34:50.516Z,13.00
2018-11-10T17:37:18.727Z,13.00
2018-11-10T17:39:47.033Z,13.00
2018-11-10T17:42:15.144Z,13.00
2018-11-10T17:44:43.410Z,13.00
2018-11-10T17:47:11.581Z,13.00
2018-11-10T17:49:39.785Z,13.00
2018-11-10T17:52:08.002Z,13.00
2018-11-10T17:54:36.172Z,12.90
2018-11-10T17:57:04.366Z,12.90
2018-11-10T17:59:32.585Z,12.80
2018-11-10T18:02:01.056Z,12.80
2018-11-10T18:04:29.180Z,12.80
2018-11-10T18:06:57.357Z,12.70
2018-11-10T18:09:25.547Z,12.70
2018-11-10T18:11:53.723Z,12.60
2018-11-10T18:14:21.937Z,12.60
2018-11-10T18:16:50.117Z,12.60
2018-11-10T18:19:18.336Z,12.50
2018-11-10T18:21:46.519Z,12.60
2018-11-10T18:24:14.720Z,12.60
2018-11-10T18:26:42.904Z,12.60
2018-11-10T18:29:11.091Z,12.60
2018-11-10T18:31:39.257Z,12.70
2018-11-10T18:34:07.461Z,12.70
2018-11-10T18:36:35.891Z,12.80
2018-11-10T18:39:05.577Z,12.90
2018-11-10T18:41:33.753Z,12.80
2018-11-10T18:44:01.938Z,12.80
2018-11-10T18:46:30.179Z,12.90
2018-11-10T18:48:58.325Z,12.80
2018-11-10T18:51:26.523Z,12.80
2018-11-10T18:53:54.714Z,12.70
2018-11-10T18:56:22.906Z,12.70
2018-11-10T18:58:51.136Z,12.70
2018-11-10T19:01:19.327Z,12.70
2018-11-10T19:03:47.568Z,12.60
2018-11-10T19:06:15.869Z,12.50
2018-11-10T19:08:43.959Z,12.60
2018-11-10T19:11:12.138Z,12.50
2018-11-10T19:13:40.340Z,12.40
2018-11-10T19:16:08.520Z,12.30
2018-11-10T19:18:36.715Z,12.30
2018-11-10T19:21:05.423Z,12.30
2018-11-10T19:23:33.565Z,12.20
2018-11-10T19:26:01.764Z,12.10
2018-11-10T19:28:29.955Z,12.10
2018-11-10T19:30:58.139Z,12.00
2018-11-10T19:33:26.358Z,12.00
2018-11-10T19:35:54.570Z,12.10
2018-11-10T19:38:22.779Z,12.00
2018-11-10T19:40:50.976Z,12.00
2018-11-10T19:43:19.200Z,11.90
2018-11-10T19:45:47.377Z,12.00
2018-11-10T19:48:15.581Z,11.90
2018-11-10T19:50:43.955Z,11.90
2018-11-10T19:53:12.021Z,11.90
2018-11-10T19:55:40.261Z,11.90
2018-11-10T19:58:08.449Z,11.90
2018-11-10T20:00:36.678Z,11.90
2018-11-10T20:03:05.138Z,11.90
2018-11-10T20:05:33.341Z,11.90
2018-11-10T20:08:01.614Z,11.90
2018-11-10T20:10:29.821Z,11.90
2018-11-10T20:12:58.072Z,12.00
2018-11-10T20:15:26.245Z,12.00
2018-11-10T20:17:54.446Z,12.00
2018-11-10T20:20:22.657Z,12.10
2018-11-10T20:22:50.863Z,12.10
2018-11-10T20:25:19.572Z,12.00
2018-11-10T20:27:47.770Z,12.00
2018-11-10T20:30:17.262Z,12.00
2018-11-10T20:32:45.776Z,12.00
2018-11-10T20:35:14.314Z,12.00
2018-11-10T20:37:43.189Z,12.00
2018-11-10T20:40:12.731Z,12.10
2018-11-10T20:42:41.185Z,12.00
2018-11-10T20:45:11.805Z,12.10
2018-11-10T20:47:40.503Z,12.00
2018-11-10T20:50:08.725Z,11.90
2018-11-10T20:52:37.658Z,11.90
2018-11-10T20:55:07.778Z,11.90
2018-11-10T20:57:36.667Z,11.90
2018-11-10T21:00:07.957Z,11.90
2018-11-10T21:02:36.117Z,11.90
2018-11-10T21:05:04.913Z,11.90
2018-11-10T21:07:33.089Z,12.00
2018-11-10T21:10:01.292Z,12.00
2018-11-10T21:12:29.465Z,12.00
2018-11-10T21:14:57.661Z,12.00
2018-11-10T21:17:25.841Z,11.90
2018-11-10T21:19:54.051Z,11.90
2018-11-10T21:22:22.230Z,11.90
2018-11-10T21:24:50.416Z,11.90
2018-11-10T21:27:18.602Z,11.90
2018-11-10T21:29:46.905Z,12.00
2018-11-10T21:32:14.968Z,12.00
2018-11-10T21:34:43.243Z,12.00
2018-11-10T21:37:11.421Z,12.00
2018-11-10T21:39:39.622Z,12.00
2018-11-10T21:42:07.801Z,12.00
2018-11-10T21:44:35.993Z,12.00
2018-11-10T21:47:04.218Z,12.00
2018-11-10T21:49:32.462Z,11.90
2018-11-10T21:52:00.592Z,11.90
2018-11-10T21:54:28.782Z,12.00
2018-11-10T21:56:56.966Z,12.00
2018-11-10T21:59:25.145Z,12.00
2018-11-10T22:01:53.332Z,12.00
2018-11-10T22:04:21.537Z,12.00
2018-11-10T22:06:49.711Z,11.90
2018-11-10T22:09:18.064Z,11.90
2018-11-10T22:11:46.089Z,11.90
2018-11-10T22:14:14.297Z,12.00
2018-11-10T22:16:42.462Z,12.00
2018-11-10T22:19:10.652Z,12.00
2018-11-10T22:21:38.841Z,11.90
2018-11-10T22:24:07.226Z,11.90
2018-11-10T22:26:35.413Z,11.90
2018-11-10T22:29:03.610Z,11.90
2018-11-10T22:31:31.802Z,12.00
2018-11-10T22:34:00.009Z,11.90
2018-11-10T22:36:28.190Z,12.00
2018-11-10T22:38:56.365Z,12.00
2018-11-10T22:41:24.563Z,12.00
2018-11-10T22:43:52.750Z,12.00
2018-11-10T22:46:20.942Z,11.90
2018-11-10T22:48:49.188Z,11.90
2018-11-10T22:51:17.709Z,11.90
2018-11-10T22:53:45.921Z,12.00
2018-11-10T22:56:14.287Z,12.00
2018-11-10T22:58:42.493Z,12.00
2018-11-10T23:01:12.345Z,12.00
2018-11-10T23:03:40.948Z,12.00
2018-11-10T23:06:10.497Z,12.00
2018-11-10T23:08:38.857Z,12.00
2018-11-10T23:11:07.058Z,12.00
2018-11-10T23:13:35.458Z,12.20
2018-11-10T23:16:03.687Z,12.10
2018-11-10T23:18:31.912Z,12.10
2018-11-10T23:21:00.122Z,12.10
2018-11-10T23:23:28.426Z,12.10
2018-11-10T23:25:56.585Z,12.00
2018-11-10T23:28:24.802Z,12.00
2018-11-10T23:30:53.032Z,11.90
2018-11-10T23:33:21.238Z,12.00
2018-11-10T23:35:49.481Z,12.00
2018-11-10T23:38:17.829Z,12.00
2018-11-10T23:40:46.083Z,11.90
2018-11-10T23:43:14.327Z,11.90
2018-11-10T23:45:42.632Z,11.80
2018-11-10T23:48:10.861Z,11.90
2018-11-10T23:50:39.097Z,11.90
2018-11-10T23:53:07.318Z,12.00
2018-11-10T23:55:35.535Z,12.00
2018-11-10T23:58:03.796Z,12.10
